Current Weather

Plzen Line

Plzen Line, Czechia (LKLN)

Report from: Sunday, April 21, 2024 8:00 PM UTC
Current time: Sunday, April 21, 2024 8:36 PM UTC

Nearby weather – Weather history – Daily summaries
Weather forecast

Temperature2.0°C (35.6°F)
Wind chill-0.2°C (31.7°F)
Dew point-4.0°C (24.8°F)
Winds 4 kts (2.1 m/s, 4.6 mph) Vrb
Winds variableWinds variable from West-Northwest (300°) to East (90°)
Visibility6.2 mi. (10 km)
Clouds Few clouds 9,400 ft. (2,865 m)
Altimeter30.15 in.Hg (1021 mB)
Relative humidity64 %
Density altitude-1,773 ft. (-541 m)
Remarks Fully automated report
Flight conditions Visual Meteorological Conditions
Raw dataLKLN 212000Z AUTO 03004KT 300V090 9999 // FEW094 02/M04 Q1021
An error has occurred. This application may no longer respond until reloaded. Reload 🗙